createdAt,value
2019-04-03T00:01:40.566Z,5.70
2019-04-03T00:04:09.072Z,5.92
2019-04-03T00:06:37.567Z,5.97
2019-04-03T00:09:07.754Z,6.30
2019-04-03T00:11:39.356Z,6.28
2019-04-03T00:14:07.421Z,6.03
2019-04-03T00:16:35.869Z,5.87
2019-04-03T00:19:04.508Z,6.05
2019-04-03T00:21:33.023Z,6.78
2019-04-03T00:24:01.467Z,6.53
2019-04-03T00:26:30.789Z,6.10
2019-04-03T00:28:59.708Z,6.17
2019-04-03T00:31:28.205Z,6.08
2019-04-03T00:33:56.650Z,6.33
2019-04-03T00:36:25.116Z,6.10
2019-04-03T00:38:54.369Z,6.15
2019-04-03T00:41:24.727Z,6.47
2019-04-03T00:43:54.512Z,6.05
2019-04-03T00:46:24.460Z,6.75
2019-04-03T00:48:55.339Z,6.72
2019-04-03T00:51:23.831Z,6.87
2019-04-03T00:53:52.280Z,6.62
2019-04-03T00:56:20.737Z,7.35
2019-04-03T00:58:49.272Z,7.75
2019-04-03T01:01:17.796Z,7.70
2019-04-03T01:03:46.447Z,7.58
2019-04-03T01:06:14.978Z,7.60
2019-04-03T01:08:43.503Z,6.70
2019-04-03T01:11:11.968Z,7.12
2019-04-03T01:13:40.483Z,7.67
2019-04-03T01:16:08.935Z,6.78
2019-04-03T01:18:37.368Z,7.28
2019-04-03T01:21:06.904Z,6.67
2019-04-03T01:23:37.837Z,6.25
2019-04-03T01:26:05.820Z,6.30
2019-04-03T01:28:34.276Z,5.87
2019-04-03T01:31:02.790Z,6.05
2019-04-03T01:33:31.273Z,5.95
2019-04-03T01:35:59.764Z,6.55
2019-04-03T01:38:28.301Z,6.22
2019-04-03T01:40:56.828Z,6.40
2019-04-03T01:43:25.282Z,6.45
2019-04-03T01:45:56.484Z,6.03
2019-04-03T01:48:23.939Z,6.20
2019-04-03T01:50:52.390Z,5.78
2019-04-03T01:53:20.904Z,5.83
2019-04-03T01:55:49.362Z,5.85
2019-04-03T01:58:17.801Z,6.35
2019-04-03T02:00:47.565Z,6.12
2019-04-03T02:03:16.182Z,6.25
2019-04-03T02:05:44.693Z,5.75
2019-04-03T02:08:14.585Z,6.67
2019-04-03T02:10:43.340Z,6.33
2019-04-03T02:13:11.794Z,6.35
2019-04-03T02:15:40.242Z,6.12
2019-04-03T02:18:08.706Z,6.10
2019-04-03T02:20:37.151Z,6.28
2019-04-03T02:23:05.843Z,6.62
2019-04-03T02:25:34.351Z,6.42
2019-04-03T02:28:03.770Z,6.40
2019-04-03T02:30:33.052Z,7.35
2019-04-03T02:33:01.552Z,7.00
2019-04-03T02:35:30.175Z,6.47
2019-04-03T02:37:58.617Z,7.10
2019-04-03T02:40:31.165Z,7.10
2019-04-03T02:42:57.323Z,6.50
2019-04-03T02:45:25.843Z,6.67
2019-04-03T02:47:54.692Z,7.10
2019-04-03T02:50:25.423Z,6.58
2019-04-03T02:52:57.950Z,7.15
2019-04-03T02:55:25.293Z,7.30
2019-04-03T02:57:54.034Z,7.17
2019-04-03T03:00:22.742Z,6.87
2019-04-03T03:02:51.321Z,7.65
2019-04-03T03:05:20.272Z,7.45
2019-04-03T03:07:48.916Z,8.20
2019-04-03T03:10:19.301Z,6.83
2019-04-03T03:12:48.481Z,7.58
2019-04-03T03:15:17.225Z,7.78
2019-04-03T03:17:46.363Z,7.53
2019-04-03T03:20:17.954Z,7.40
2019-04-03T03:22:49.972Z,7.37
2019-04-03T03:25:17.220Z,7.37
2019-04-03T03:27:46.840Z,7.70
2019-04-03T03:30:32.751Z,6.83
2019-04-03T03:32:46.268Z,6.90
2019-04-03T03:35:19.891Z,6.83
2019-04-03T03:37:45.736Z,6.95
2019-04-03T03:40:16.609Z,6.75
2019-04-03T03:42:44.838Z,7.55
2019-04-03T03:45:18.123Z,6.65
2019-04-03T03:47:43.672Z,6.62
2019-04-03T03:50:13.367Z,6.60
2019-04-03T03:52:42.023Z,6.50
2019-04-03T03:55:10.695Z,6.62
2019-04-03T03:57:40.660Z,6.95
2019-04-03T04:00:10.197Z,6.22
2019-04-03T04:02:43.107Z,6.80
2019-04-03T04:05:11.563Z,6.50
2019-04-03T04:07:39.699Z,5.85
2019-04-03T04:10:08.677Z,7.03
2019-04-03T04:12:41.189Z,7.85
2019-04-03T04:15:07.787Z,7.08
2019-04-03T04:17:36.890Z,8.13
2019-04-03T04:20:07.365Z,6.65
2019-04-03T04:22:37.332Z,7.22
2019-04-03T04:25:07.040Z,7.80
2019-04-03T04:27:38.024Z,7.80
2019-04-03T04:30:07.252Z,8.50
2019-04-03T04:32:35.708Z,7.65
2019-04-03T04:35:05.906Z,7.22
2019-04-03T04:37:34.413Z,8.73
2019-04-03T04:40:02.981Z,7.53
2019-04-03T04:42:34.490Z,8.45
2019-04-03T04:45:01.879Z,7.70
2019-04-03T04:47:30.401Z,7.37
2019-04-03T04:49:58.879Z,7.87
2019-04-03T04:52:27.682Z,7.85
2019-04-03T04:54:56.775Z,7.22
2019-04-03T04:57:25.535Z,6.92
2019-04-03T04:59:54.264Z,7.25
2019-04-03T05:02:22.793Z,6.53
2019-04-03T05:04:51.235Z,6.35
2019-04-03T05:07:19.693Z,7.20
2019-04-03T05:09:48.147Z,7.78
2019-04-03T05:12:17.153Z,7.42
2019-04-03T05:14:46.826Z,7.75
2019-04-03T05:17:16.336Z,6.65
2019-04-03T05:19:44.988Z,7.70
2019-04-03T05:22:13.725Z,6.53
2019-04-03T05:24:42.531Z,7.42
2019-04-03T05:27:11.160Z,6.83
2019-04-03T05:29:39.844Z,7.58
2019-04-03T05:32:10.670Z,6.92
2019-04-03T05:34:38.755Z,7.58
2019-04-03T05:37:07.246Z,7.37
2019-04-03T05:39:35.807Z,6.85
2019-04-03T05:42:04.541Z,7.85
2019-04-03T05:44:33.990Z,7.20
2019-04-03T05:47:02.429Z,7.62
2019-04-03T05:49:30.970Z,7.37
2019-04-03T05:51:59.517Z,7.15
2019-04-03T05:54:27.993Z,8.18
2019-04-03T05:56:56.461Z,7.92
2019-04-03T05:59:24.919Z,7.83
2019-04-03T06:01:53.362Z,7.62
2019-04-03T06:04:21.875Z,7.95
2019-04-03T06:06:50.314Z,8.30
2019-04-03T06:09:20.081Z,7.58
2019-04-03T06:11:51.709Z,7.65
2019-04-03T06:14:19.804Z,7.20
2019-04-03T06:16:49.401Z,7.95
2019-04-03T06:19:17.879Z,8.25
2019-04-03T06:21:46.612Z,8.40
2019-04-03T06:24:17.685Z,8.50
2019-04-03T06:26:45.362Z,9.15
2019-04-03T06:29:13.874Z,9.33
2019-04-03T06:31:42.395Z,8.85
2019-04-03T06:34:10.864Z,9.70
2019-04-03T06:36:39.385Z,8.83
2019-04-03T06:39:08.675Z,8.10
2019-04-03T06:41:37.261Z,9.48
2019-04-03T06:44:07.572Z,8.83
2019-04-03T06:46:35.889Z,9.30
2019-04-03T06:49:04.623Z,10.15
2019-04-03T06:51:34.595Z,10.05
2019-04-03T06:54:03.046Z,10.90
2019-04-03T06:56:31.591Z,10.40
2019-04-03T06:59:00.054Z,12.00
2019-04-03T07:01:28.581Z,12.15
2019-04-03T07:03:57.102Z,11.63
2019-04-03T07:06:25.603Z,11.90
2019-04-03T07:08:54.065Z,13.22
2019-04-03T07:11:23.944Z,13.03
2019-04-03T07:13:53.852Z,12.07
2019-04-03T07:16:22.890Z,11.55
2019-04-03T07:18:51.352Z,11.60
2019-04-03T07:21:20.694Z,12.00
2019-04-03T07:23:50.161Z,12.18
2019-04-03T07:26:18.713Z,12.07
2019-04-03T07:28:47.270Z,12.35
2019-04-03T07:31:15.819Z,12.20
2019-04-03T07:33:44.275Z,11.80
2019-04-03T07:36:12.727Z,11.88
2019-04-03T07:38:41.287Z,12.28
2019-04-03T07:41:09.745Z,12.60
2019-04-03T07:43:38.216Z,11.97
2019-04-03T07:46:06.671Z,11.85
2019-04-03T07:48:35.807Z,12.30
2019-04-03T07:51:06.288Z,12.23
2019-04-03T07:53:34.930Z,11.83
2019-04-03T07:56:03.421Z,11.80
2019-04-03T07:58:32.570Z,13.30
2019-04-03T08:01:01.346Z,11.08
2019-04-03T08:03:30.249Z,11.30
2019-04-03T08:05:59.160Z,12.20
2019-04-03T08:08:27.862Z,11.75
2019-04-03T08:10:56.500Z,12.73
2019-04-03T08:13:25.147Z,12.53
2019-04-03T08:15:53.692Z,12.50
2019-04-03T08:18:22.339Z,12.63
2019-04-03T08:20:51.087Z,11.73
2019-04-03T08:23:19.877Z,12.40
2019-04-03T08:25:49.169Z,11.70
2019-04-03T08:28:17.941Z,11.55
2019-04-03T08:30:46.435Z,12.65
2019-04-03T08:33:18.146Z,13.55
2019-04-03T08:35:45.323Z,12.70
2019-04-03T08:38:14.234Z,12.88
2019-04-03T08:40:42.985Z,13.22
2019-04-03T08:43:11.836Z,13.28
2019-04-03T08:45:40.652Z,12.85
2019-04-03T08:48:09.139Z,13.53
2019-04-03T08:50:37.691Z,12.80
2019-04-03T08:53:08.670Z,15.60
2019-04-03T08:55:36.499Z,13.32
2019-04-03T08:58:05.051Z,13.00
2019-04-03T09:00:33.854Z,12.18
2019-04-03T09:03:04.108Z,12.18
2019-04-03T09:05:32.952Z,12.23
2019-04-03T09:08:01.565Z,12.43
2019-04-03T09:10:31.734Z,12.78
2019-04-03T09:13:00.232Z,11.70
2019-04-03T09:15:28.748Z,12.30
2019-04-03T09:17:57.221Z,11.60
2019-04-03T09:20:25.671Z,11.48
2019-04-03T09:22:54.507Z,10.88
2019-04-03T09:25:23.155Z,11.10
2019-04-03T09:27:51.617Z,11.00
2019-04-03T09:30:20.618Z,10.53
2019-04-03T09:32:49.070Z,10.38
2019-04-03T09:35:17.534Z,9.65
2019-04-03T09:37:46.678Z,10.25
2019-04-03T09:40:17.307Z,10.80
2019-04-03T09:42:45.584Z,10.28
2019-04-03T09:45:15.112Z,9.03
2019-04-03T09:47:43.575Z,9.88
2019-04-03T09:50:14.357Z,9.08
2019-04-03T09:52:48.128Z,9.33
2019-04-03T09:55:13.152Z,9.00
2019-04-03T09:57:41.776Z,9.03
2019-04-03T10:00:11.394Z,8.85
2019-04-03T10:02:40.172Z,9.35
2019-04-03T10:05:09.580Z,9.43
2019-04-03T10:07:38.310Z,9.35
2019-04-03T10:10:09.949Z,9.43
2019-04-03T10:12:38.476Z,9.20
2019-04-03T10:15:07.876Z,9.03
2019-04-03T10:17:38.267Z,9.40
2019-04-03T10:20:09.539Z,8.70
2019-04-03T10:22:38.391Z,10.20
2019-04-03T10:25:09.254Z,9.33
2019-04-03T10:27:37.922Z,8.93
2019-04-03T10:30:14.489Z,7.42
2019-04-03T10:32:43.007Z,8.03
2019-04-03T10:35:11.536Z,9.48
2019-04-03T10:37:39.995Z,13.13
2019-04-03T10:40:10.309Z,8.13
2019-04-03T10:42:39.090Z,7.40
2019-04-03T10:45:08.678Z,6.58
2019-04-03T10:47:42.395Z,6.70
2019-04-03T10:50:08.744Z,7.47
2019-04-03T10:52:37.411Z,7.83
2019-04-03T10:55:07.986Z,6.97
2019-04-03T10:57:37.137Z,6.60
2019-04-03T11:00:08.747Z,6.95
2019-04-03T11:05:08.213Z,5.12
2019-04-03T11:07:36.824Z,5.25
2019-04-03T11:10:08.228Z,5.55
2019-04-03T11:12:36.740Z,6.53
2019-04-03T11:15:10.813Z,6.85
2019-04-03T11:17:38.360Z,5.62
2019-04-03T11:20:10.182Z,4.55
2019-04-03T11:22:41.590Z,4.78
2019-04-03T11:25:09.761Z,4.47
2019-04-03T11:27:43.317Z,4.87
2019-04-03T11:30:18.741Z,5.87
2019-04-03T11:32:45.304Z,4.92
2019-04-03T11:35:15.009Z,4.85
2019-04-03T11:37:43.786Z,4.70
2019-04-03T11:40:13.796Z,4.90
2019-04-03T11:42:42.546Z,5.03
2019-04-03T11:45:11.705Z,5.00
2019-04-03T11:47:40.403Z,5.00
2019-04-03T11:50:11.325Z,4.80
2019-04-03T11:52:39.990Z,4.85
2019-04-03T11:55:10.954Z,4.85
2019-04-03T11:57:39.741Z,4.50
2019-04-03T12:00:15.795Z,4.80
2019-04-03T12:02:44.747Z,4.15
2019-04-03T12:05:20.050Z,5.15
2019-04-03T12:07:46.783Z,5.70
2019-04-03T12:10:15.972Z,6.25
2019-04-03T12:12:44.766Z,5.35
2019-04-03T12:15:16.226Z,5.15
2019-04-03T12:17:44.298Z,5.20
2019-04-03T12:20:16.324Z,5.62
2019-04-03T12:22:45.180Z,4.53
2019-04-03T12:25:14.564Z,4.00
2019-04-03T12:27:45.019Z,3.25
2019-04-03T12:30:14.031Z,2.77
2019-04-03T12:32:47.514Z,2.50
2019-04-03T12:35:12.955Z,2.75
2019-04-03T12:37:41.421Z,2.10
2019-04-03T12:40:10.410Z,2.27
2019-04-03T12:42:38.937Z,2.20
2019-04-03T12:45:08.471Z,2.10
2019-04-03T12:47:37.484Z,2.27
2019-04-03T12:50:07.891Z,2.15
2019-04-03T12:52:36.640Z,2.30
2019-04-03T12:55:07.169Z,3.42
2019-04-03T12:57:38.881Z,1.90
2019-04-03T13:00:10.574Z,2.00
2019-04-03T13:02:39.014Z,2.10
2019-04-03T13:05:08.435Z,1.62
2019-04-03T13:07:37.500Z,1.80
2019-04-03T13:10:08.988Z,1.77
2019-04-03T13:12:37.519Z,1.77
2019-04-03T13:15:09.449Z,1.50
2019-04-03T13:17:38.208Z,1.55
2019-04-03T13:20:08.082Z,1.80
2019-04-03T13:22:36.806Z,1.45
2019-04-03T13:25:08.649Z,1.80
2019-04-03T13:27:37.676Z,1.60
2019-04-03T13:30:11.147Z,1.37
2019-04-03T13:32:39.266Z,1.50
2019-04-03T13:35:11.402Z,1.55
2019-04-03T13:37:39.918Z,1.50
2019-04-03T13:40:09.817Z,1.60
2019-04-03T13:42:38.618Z,1.70
2019-04-03T13:45:08.736Z,1.80
2019-04-03T13:47:39.778Z,1.75
2019-04-03T13:50:09.752Z,1.90
2019-04-03T13:52:42.444Z,1.45
2019-04-03T13:55:09.103Z,1.70
2019-04-03T13:57:37.830Z,0.85
2019-04-03T14:00:18.178Z,1.45
2019-04-03T14:02:38.615Z,1.12
2019-04-03T14:05:08.818Z,1.32
2019-04-03T14:07:40.315Z,1.50
2019-04-03T14:10:09.761Z,1.30
2019-04-03T14:12:42.944Z,1.35
2019-04-03T14:15:09.684Z,1.20
2019-04-03T14:17:38.578Z,1.47
2019-04-03T14:20:09.147Z,1.60
2019-04-03T14:22:37.676Z,1.30
2019-04-03T14:25:17.976Z,1.47
2019-04-03T14:27:37.731Z,1.40
2019-04-03T14:30:11.589Z,1.32
2019-04-03T14:35:38.459Z,1.60
2019-04-03T14:37:37.544Z,1.72
2019-04-03T14:40:11.156Z,1.50
2019-04-03T14:42:37.596Z,1.32
2019-04-03T14:45:09.309Z,1.50
2019-04-03T14:47:37.752Z,1.40
2019-04-03T14:50:07.150Z,1.70
2019-04-03T14:52:38.629Z,1.57
2019-04-03T14:55:18.228Z,1.53
2019-04-03T14:57:38.269Z,1.72
2019-04-03T15:00:25.254Z,1.50
2019-04-03T15:02:40.670Z,1.57
2019-04-03T15:05:09.993Z,1.65
2019-04-03T15:07:38.597Z,1.70
2019-04-03T15:10:08.475Z,1.55
2019-04-03T15:12:39.911Z,1.92
2019-04-03T15:15:09.721Z,1.60
2019-04-03T15:17:38.919Z,1.65
2019-04-03T15:20:10.413Z,1.40
2019-04-03T15:22:39.458Z,1.70
2019-04-03T15:25:08.829Z,1.50
2019-04-03T15:27:37.526Z,1.77
2019-04-03T15:30:09.919Z,1.75
2019-04-03T15:35:06.979Z,1.60
2019-04-03T15:37:35.434Z,1.57
2019-04-03T15:40:04.936Z,1.90
2019-04-03T15:42:33.527Z,1.75
2019-04-03T15:45:02.349Z,2.00
2019-04-03T15:47:37.109Z,1.50
2019-04-03T15:50:01.772Z,1.52
2019-04-03T15:52:30.418Z,1.60
2019-04-03T15:54:58.948Z,1.35
2019-04-03T15:57:27.641Z,1.47
2019-04-03T15:59:56.449Z,1.45
2019-04-03T16:02:27.756Z,1.90
2019-04-03T16:04:55.253Z,1.60
2019-04-03T16:07:23.780Z,1.82
2019-04-03T16:09:52.315Z,1.70
2019-04-03T16:12:21.229Z,1.47
2019-04-03T16:14:51.127Z,2.08
2019-04-03T16:17:20.096Z,1.90
2019-04-03T16:19:48.697Z,2.08
2019-04-03T16:22:17.180Z,1.87
2019-04-03T16:24:45.646Z,2.05
2019-04-03T16:27:14.092Z,1.90
2019-04-03T16:29:42.626Z,2.12
2019-04-03T16:32:11.514Z,1.90
2019-04-03T16:34:41.678Z,2.15
2019-04-03T16:37:10.623Z,2.25
2019-04-03T16:39:39.254Z,2.35
2019-04-03T16:42:07.772Z,2.50
2019-04-03T16:44:36.635Z,1.95
2019-04-03T16:47:05.278Z,1.85
2019-04-03T16:49:36.994Z,2.22
2019-04-03T16:52:05.818Z,2.52
2019-04-03T16:54:34.816Z,2.05
2019-04-03T16:57:03.681Z,2.15
2019-04-03T16:59:35.350Z,2.02
2019-04-03T17:02:02.609Z,2.00
2019-04-03T17:04:31.177Z,2.10
2019-04-03T17:06:59.738Z,2.12
2019-04-03T17:09:28.263Z,2.00
2019-04-03T17:11:56.711Z,1.80
2019-04-03T17:14:25.724Z,2.08
2019-04-03T17:16:54.451Z,2.10
2019-04-03T17:19:22.984Z,1.70
2019-04-03T17:21:51.504Z,1.95
2019-04-03T17:24:19.970Z,1.80
2019-04-03T17:26:55.489Z,2.20
2019-04-03T17:29:18.667Z,1.60
2019-04-03T17:31:47.115Z,1.80
2019-04-03T17:34:15.849Z,1.70
2019-04-03T17:36:44.549Z,1.87
2019-04-03T17:39:13.468Z,2.10
2019-04-03T17:41:42.140Z,1.80
2019-04-03T17:44:12.025Z,1.90
2019-04-03T17:46:40.779Z,1.80
2019-04-03T17:49:09.224Z,2.10
2019-04-03T17:51:37.673Z,1.85
2019-04-03T17:54:07.757Z,1.70
2019-04-03T17:56:36.329Z,1.62
2019-04-03T17:59:04.861Z,2.20
2019-04-03T18:01:33.317Z,1.80
2019-04-03T18:04:01.801Z,1.77
2019-04-03T18:06:30.309Z,2.10
2019-04-03T18:08:58.770Z,1.85
2019-04-03T18:11:27.228Z,1.95
2019-04-03T18:13:55.699Z,2.10
2019-04-03T18:16:24.148Z,1.90
2019-04-03T18:18:52.596Z,1.90
2019-04-03T18:21:21.073Z,2.08
2019-04-03T18:23:52.647Z,2.15
2019-04-03T18:26:19.712Z,1.92
2019-04-03T18:28:48.246Z,1.80
2019-04-03T18:31:16.694Z,1.98
2019-04-03T18:33:45.152Z,1.90
2019-04-03T18:36:13.601Z,2.00
2019-04-03T18:38:42.060Z,1.92
2019-04-03T18:41:10.582Z,1.65
2019-04-03T18:43:39.037Z,1.90
2019-04-03T18:46:07.533Z,2.10
2019-04-03T18:48:36.044Z,2.10
2019-04-03T18:51:06.498Z,1.98
2019-04-03T18:53:34.693Z,1.98
2019-04-03T18:56:03.136Z,2.30
2019-04-03T18:58:31.604Z,2.08
2019-04-03T19:01:01.812Z,2.12
2019-04-03T19:03:30.365Z,2.10
2019-04-03T19:05:59.999Z,2.05
2019-04-03T19:08:28.792Z,1.90
2019-04-03T19:11:02.772Z,2.12
2019-04-03T19:13:27.506Z,2.00
2019-04-03T19:15:55.979Z,2.00
2019-04-03T19:18:24.516Z,2.25
2019-04-03T19:20:52.971Z,2.52
2019-04-03T19:23:21.426Z,2.35
2019-04-03T19:25:49.884Z,2.30
2019-04-03T19:28:18.324Z,2.20
2019-04-03T19:30:46.785Z,2.05
2019-04-03T19:33:15.238Z,2.22
2019-04-03T19:35:43.801Z,2.05
2019-04-03T19:38:13.345Z,2.17
2019-04-03T19:40:42.084Z,2.12
2019-04-03T19:43:10.607Z,2.12
2019-04-03T19:45:39.065Z,2.12
2019-04-03T19:48:07.645Z,2.10
2019-04-03T19:50:36.111Z,2.20
2019-04-03T19:53:04.556Z,2.20
2019-04-03T19:55:33.078Z,2.25
2019-04-03T19:58:01.585Z,2.00
2019-04-03T20:00:30.043Z,2.00
2019-04-03T20:02:58.581Z,1.90
2019-04-03T20:05:27.084Z,1.90
2019-04-03T20:07:58.689Z,2.80
2019-04-03T20:10:25.735Z,2.90
2019-04-03T20:12:54.201Z,3.12
2019-04-03T20:15:23.302Z,7.33
2019-04-03T20:17:54.575Z,8.23
2019-04-03T20:20:22.227Z,9.50
2019-04-03T20:22:50.783Z,9.83
2019-04-03T20:25:19.235Z,9.25
2019-04-03T20:27:51.374Z,9.28
2019-04-03T20:30:17.948Z,10.18
2019-04-03T20:32:46.410Z,10.75
2019-04-03T20:35:17.999Z,11.83
2019-04-03T20:37:45.057Z,11.40
2019-04-03T20:40:13.590Z,12.75
2019-04-03T20:42:42.034Z,12.33
2019-04-03T20:45:10.734Z,13.22
2019-04-03T20:47:39.257Z,12.68
2019-04-03T20:50:08.861Z,12.53
2019-04-03T20:52:37.312Z,12.90
2019-04-03T20:55:08.968Z,13.40
2019-04-03T20:57:37.497Z,13.35
2019-04-03T21:00:18.381Z,13.00
2019-04-03T21:02:46.787Z,13.83
2019-04-03T21:05:17.836Z,12.47
2019-04-03T21:07:45.422Z,12.47
2019-04-03T21:10:14.111Z,10.72
2019-04-03T21:12:42.559Z,10.28
2019-04-03T21:15:14.249Z,11.28
2019-04-03T21:17:41.748Z,11.25
2019-04-03T21:20:11.046Z,11.12
2019-04-03T21:22:39.581Z,10.32
2019-04-03T21:25:08.160Z,9.38
2019-04-03T21:27:39.669Z,10.23
2019-04-03T21:30:10.596Z,10.18
2019-04-03T21:32:39.121Z,10.03
2019-04-03T21:35:07.727Z,9.63
2019-04-03T21:37:36.167Z,10.03
2019-04-03T21:40:05.340Z,9.13
2019-04-03T21:42:36.617Z,8.88
2019-04-03T21:45:07.565Z,9.68
2019-04-03T21:47:36.477Z,9.43
2019-04-03T21:50:06.461Z,9.15
2019-04-03T21:52:34.915Z,8.38
2019-04-03T21:55:04.981Z,8.35
2019-04-03T21:57:33.551Z,8.70
2019-04-03T22:00:02.020Z,8.63
2019-04-03T22:02:30.460Z,9.20
2019-04-03T22:04:59.234Z,8.53
2019-04-03T22:07:28.537Z,7.92
2019-04-03T22:09:57.607Z,7.67
2019-04-03T22:12:26.059Z,8.13
2019-04-03T22:14:54.540Z,7.47
2019-04-03T22:17:22.991Z,8.33
2019-04-03T22:19:51.467Z,7.87
2019-04-03T22:22:19.989Z,7.40
2019-04-03T22:24:48.426Z,7.45
2019-04-03T22:27:16.881Z,7.10
2019-04-03T22:29:45.327Z,6.87
2019-04-03T22:32:13.775Z,7.22
2019-04-03T22:34:42.318Z,7.83
2019-04-03T22:37:10.833Z,7.08
2019-04-03T22:39:39.700Z,7.00
2019-04-03T22:42:08.320Z,7.50
2019-04-03T22:44:36.819Z,7.58
2019-04-03T22:47:05.294Z,7.40
2019-04-03T22:49:34.427Z,7.35
2019-04-03T22:52:03.070Z,7.47
2019-04-03T22:54:31.520Z,7.55
2019-04-03T22:56:59.961Z,7.30
2019-04-03T22:59:28.480Z,7.30
2019-04-03T23:01:57.016Z,6.80
2019-04-03T23:04:25.461Z,7.00
2019-04-03T23:06:53.911Z,6.85
2019-04-03T23:09:24.753Z,7.72
2019-04-03T23:11:52.491Z,6.83
2019-04-03T23:14:20.903Z,7.37
2019-04-03T23:16:49.326Z,7.35
2019-04-03T23:19:18.040Z,7.28
2019-04-03T23:21:47.029Z,7.12
2019-04-03T23:24:15.438Z,7.05
2019-04-03T23:26:43.852Z,8.15
2019-04-03T23:29:12.248Z,8.65
2019-04-03T23:31:40.681Z,8.08
2019-04-03T23:34:09.084Z,8.48
2019-04-03T23:36:37.492Z,7.75
2019-04-03T23:39:08.141Z,8.08
2019-04-03T23:41:37.019Z,8.48
2019-04-03T23:44:05.617Z,7.45
2019-04-03T23:46:34.008Z,7.42
2019-04-03T23:49:02.532Z,7.53
2019-04-03T23:51:30.987Z,7.45
2019-04-03T23:53:59.394Z,7.22
2019-04-03T23:56:27.804Z,7.90
2019-04-03T23:58:56.237Z,7.00
